sensor_id;sensor_type;location;lat;lon;timestamp;P1;durP1;ratioP1;P2;durP2;ratioP2
39346;SDS011;26262;49.836;6.632;2023-05-14T00:01:03;8.25;;;6.75;;
39346;SDS011;26262;49.836;6.632;2023-05-14T00:03:31;8.43;;;7.10;;
39346;SDS011;26262;49.836;6.632;2023-05-14T00:05:56;7.30;;;6.40;;
39346;SDS011;26262;49.836;6.632;2023-05-14T00:08:22;8.00;;;7.20;;
39346;SDS011;26262;49.836;6.632;2023-05-14T00:10:47;13.10;;;7.80;;
39346;SDS011;26262;49.836;6.632;2023-05-14T00:13:13;8.55;;;7.47;;
39346;SDS011;26262;49.836;6.632;2023-05-14T00:15:38;8.10;;;7.30;;
39346;SDS011;26262;49.836;6.632;2023-05-14T00:18:04;10.88;;;7.13;;
39346;SDS011;26262;49.836;6.632;2023-05-14T00:20:30;9.00;;;7.32;;
39346;SDS011;26262;49.836;6.632;2023-05-14T00:22:56;8.75;;;6.97;;
39346;SDS011;26262;49.836;6.632;2023-05-14T00:25:22;9.70;;;7.40;;
39346;SDS011;26262;49.836;6.632;2023-05-14T00:27:47;8.15;;;7.20;;
39346;SDS011;26262;49.836;6.632;2023-05-14T00:30:13;8.90;;;7.38;;
39346;SDS011;26262;49.836;6.632;2023-05-14T00:32:38;10.52;;;7.50;;
39346;SDS011;26262;49.836;6.632;2023-05-14T00:35:04;9.82;;;7.55;;
39346;SDS011;26262;49.836;6.632;2023-05-14T00:37:30;9.85;;;7.28;;
39346;SDS011;26262;49.836;6.632;2023-05-14T00:39:55;8.70;;;7.43;;
39346;SDS011;26262;49.836;6.632;2023-05-14T00:42:21;8.60;;;7.68;;
39346;SDS011;26262;49.836;6.632;2023-05-14T00:44:47;9.65;;;7.72;;
39346;SDS011;26262;49.836;6.632;2023-05-14T00:47:12;7.93;;;7.13;;
39346;SDS011;26262;49.836;6.632;2023-05-14T00:49:38;10.55;;;8.13;;
39346;SDS011;26262;49.836;6.632;2023-05-14T00:52:05;7.60;;;6.75;;
39346;SDS011;26262;49.836;6.632;2023-05-14T00:54:31;7.32;;;6.63;;
39346;SDS011;26262;49.836;6.632;2023-05-14T00:56:57;8.65;;;7.20;;
39346;SDS011;26262;49.836;6.632;2023-05-14T00:59:24;9.82;;;6.22;;
39346;SDS011;26262;49.836;6.632;2023-05-14T01:01:49;7.90;;;7.03;;
39346;SDS011;26262;49.836;6.632;2023-05-14T01:04:15;8.30;;;7.50;;
39346;SDS011;26262;49.836;6.632;2023-05-14T01:09:35;8.98;;;6.53;;
39346;SDS011;26262;49.836;6.632;2023-05-14T01:12:39;9.55;;;7.97;;
39346;SDS011;26262;49.836;6.632;2023-05-14T01:17:41;7.65;;;6.85;;
39346;SDS011;26262;49.836;6.632;2023-05-14T01:20:10;7.80;;;6.93;;
39346;SDS011;26262;49.836;6.632;2023-05-14T01:22:36;9.07;;;7.50;;
39346;SDS011;26262;49.836;6.632;2023-05-14T01:25:02;8.25;;;7.07;;
39346;SDS011;26262;49.836;6.632;2023-05-14T01:30:33;15.77;;;9.25;;
39346;SDS011;26262;49.836;6.632;2023-05-14T01:33:02;11.07;;;9.98;;
39346;SDS011;26262;49.836;6.632;2023-05-14T01:35:35;10.02;;;8.23;;
39346;SDS011;26262;49.836;6.632;2023-05-14T01:38:03;11.57;;;8.68;;
39346;SDS011;26262;49.836;6.632;2023-05-14T01:40:31;8.25;;;7.45;;
39346;SDS011;26262;49.836;6.632;2023-05-14T01:42:58;8.85;;;8.05;;
39346;SDS011;26262;49.836;6.632;2023-05-14T01:45:24;9.02;;;7.05;;
39346;SDS011;26262;49.836;6.632;2023-05-14T01:47:50;8.98;;;7.85;;
39346;SDS011;26262;49.836;6.632;2023-05-14T01:50:16;8.52;;;7.18;;
39346;SDS011;26262;49.836;6.632;2023-05-14T01:52:42;8.13;;;7.10;;
39346;SDS011;26262;49.836;6.632;2023-05-14T01:55:08;8.55;;;7.43;;
39346;SDS011;26262;49.836;6.632;2023-05-14T01:57:34;10.75;;;7.75;;
39346;SDS011;26262;49.836;6.632;2023-05-14T01:59:59;9.02;;;7.70;;
39346;SDS011;26262;49.836;6.632;2023-05-14T02:02:25;9.63;;;8.18;;
39346;SDS011;26262;49.836;6.632;2023-05-14T02:04:51;9.05;;;7.18;;
39346;SDS011;26262;49.836;6.632;2023-05-14T02:07:16;10.07;;;8.55;;
39346;SDS011;26262;49.836;6.632;2023-05-14T02:09:42;8.70;;;7.78;;
39346;SDS011;26262;49.836;6.632;2023-05-14T02:12:08;10.00;;;7.32;;
39346;SDS011;26262;49.836;6.632;2023-05-14T02:14:33;8.02;;;7.22;;
39346;SDS011;26262;49.836;6.632;2023-05-14T02:16:59;8.98;;;7.32;;
39346;SDS011;26262;49.836;6.632;2023-05-14T02:19:25;10.77;;;7.35;;
39346;SDS011;26262;49.836;6.632;2023-05-14T02:21:50;9.30;;;7.22;;
39346;SDS011;26262;49.836;6.632;2023-05-14T02:24:16;12.38;;;7.82;;
39346;SDS011;26262;49.836;6.632;2023-05-14T02:26:41;8.63;;;7.72;;
39346;SDS011;26262;49.836;6.632;2023-05-14T02:29:07;10.75;;;8.63;;
39346;SDS011;26262;49.836;6.632;2023-05-14T02:31:33;8.55;;;7.70;;
39346;SDS011;26262;49.836;6.632;2023-05-14T02:34:00;8.82;;;8.02;;
39346;SDS011;26262;49.836;6.632;2023-05-14T02:36:27;9.25;;;8.35;;
39346;SDS011;26262;49.836;6.632;2023-05-14T02:38:53;8.77;;;7.88;;
39346;SDS011;26262;49.836;6.632;2023-05-14T02:41:18;10.10;;;7.93;;
39346;SDS011;26262;49.836;6.632;2023-05-14T02:43:45;8.25;;;7.20;;
39346;SDS011;26262;49.836;6.632;2023-05-14T02:46:10;10.32;;;7.40;;
39346;SDS011;26262;49.836;6.632;2023-05-14T02:48:36;10.05;;;8.00;;
39346;SDS011;26262;49.836;6.632;2023-05-14T02:51:01;8.57;;;7.43;;
39346;SDS011;26262;49.836;6.632;2023-05-14T02:53:27;8.50;;;7.55;;
39346;SDS011;26262;49.836;6.632;2023-05-14T02:55:53;8.63;;;7.72;;
39346;SDS011;26262;49.836;6.632;2023-05-14T02:58:18;7.43;;;6.60;;
39346;SDS011;26262;49.836;6.632;2023-05-14T03:00:44;8.13;;;7.28;;
39346;SDS011;26262;49.836;6.632;2023-05-14T03:03:09;8.15;;;7.22;;
39346;SDS011;26262;49.836;6.632;2023-05-14T03:05:35;10.48;;;7.55;;
39346;SDS011;26262;49.836;6.632;2023-05-14T03:08:00;7.78;;;6.63;;
39346;SDS011;26262;49.836;6.632;2023-05-14T03:10:26;9.73;;;6.57;;
39346;SDS011;26262;49.836;6.632;2023-05-14T03:12:51;8.25;;;7.28;;
39346;SDS011;26262;49.836;6.632;2023-05-14T03:15:17;8.88;;;7.20;;
39346;SDS011;26262;49.836;6.632;2023-05-14T03:17:43;7.80;;;5.93;;
39346;SDS011;26262;49.836;6.632;2023-05-14T03:20:08;10.90;;;6.43;;
39346;SDS011;26262;49.836;6.632;2023-05-14T03:22:34;7.43;;;6.18;;
39346;SDS011;26262;49.836;6.632;2023-05-14T03:25:00;6.80;;;6.13;;
39346;SDS011;26262;49.836;6.632;2023-05-14T03:27:26;8.52;;;6.30;;
39346;SDS011;26262;49.836;6.632;2023-05-14T03:29:51;6.80;;;6.18;;
39346;SDS011;26262;49.836;6.632;2023-05-14T03:32:17;6.75;;;6.15;;
39346;SDS011;26262;49.836;6.632;2023-05-14T03:34:42;8.25;;;6.78;;
39346;SDS011;26262;49.836;6.632;2023-05-14T03:37:08;9.43;;;7.30;;
39346;SDS011;26262;49.836;6.632;2023-05-14T03:39:34;8.27;;;6.55;;
39346;SDS011;26262;49.836;6.632;2023-05-14T03:42:00;11.93;;;7.53;;
39346;SDS011;26262;49.836;6.632;2023-05-14T03:44:26;8.40;;;7.60;;
39346;SDS011;26262;49.836;6.632;2023-05-14T03:46:51;8.27;;;7.40;;
39346;SDS011;26262;49.836;6.632;2023-05-14T03:49:17;7.47;;;6.72;;
39346;SDS011;26262;49.836;6.632;2023-05-14T03:51:42;7.93;;;7.13;;
39346;SDS011;26262;49.836;6.632;2023-05-14T03:54:08;9.10;;;7.00;;
39346;SDS011;26262;49.836;6.632;2023-05-14T03:56:33;6.85;;;5.85;;
39346;SDS011;26262;49.836;6.632;2023-05-14T03:58:59;6.00;;;5.38;;
39346;SDS011;26262;49.836;6.632;2023-05-14T04:01:25;6.68;;;5.82;;
39346;SDS011;26262;49.836;6.632;2023-05-14T04:03:50;8.90;;;5.63;;
39346;SDS011;26262;49.836;6.632;2023-05-14T04:06:16;10.52;;;6.28;;
39346;SDS011;26262;49.836;6.632;2023-05-14T04:08:41;8.23;;;5.88;;
39346;SDS011;26262;49.836;6.632;2023-05-14T04:11:07;7.40;;;6.60;;
39346;SDS011;26262;49.836;6.632;2023-05-14T04:13:32;6.82;;;6.13;;
39346;SDS011;26262;49.836;6.632;2023-05-14T04:15:58;10.70;;;6.40;;
39346;SDS011;26262;49.836;6.632;2023-05-14T04:18:24;7.68;;;6.45;;
39346;SDS011;26262;49.836;6.632;2023-05-14T04:20:49;9.30;;;6.93;;
39346;SDS011;26262;49.836;6.632;2023-05-14T04:23:15;8.95;;;6.68;;
39346;SDS011;26262;49.836;6.632;2023-05-14T04:25:40;7.78;;;6.70;;
39346;SDS011;26262;49.836;6.632;2023-05-14T04:28:06;8.30;;;6.15;;
39346;SDS011;26262;49.836;6.632;2023-05-14T04:30:31;7.90;;;6.35;;
39346;SDS011;26262;49.836;6.632;2023-05-14T04:32:57;8.70;;;6.22;;
39346;SDS011;26262;49.836;6.632;2023-05-14T04:35:23;8.85;;;6.43;;
39346;SDS011;26262;49.836;6.632;2023-05-14T04:37:48;7.47;;;6.03;;
39346;SDS011;26262;49.836;6.632;2023-05-14T04:40:14;9.32;;;6.13;;
39346;SDS011;26262;49.836;6.632;2023-05-14T04:42:42;8.15;;;6.47;;
39346;SDS011;26262;49.836;6.632;2023-05-14T04:45:08;7.47;;;6.68;;
39346;SDS011;26262;49.836;6.632;2023-05-14T04:47:34;14.65;;;6.68;;
39346;SDS011;26262;49.836;6.632;2023-05-14T04:50:00;7.18;;;6.43;;
39346;SDS011;26262;49.836;6.632;2023-05-14T04:52:26;7.90;;;7.03;;
39346;SDS011;26262;49.836;6.632;2023-05-14T04:54:52;13.50;;;8.25;;
39346;SDS011;26262;49.836;6.632;2023-05-14T04:57:17;8.73;;;7.88;;
39346;SDS011;26262;49.836;6.632;2023-05-14T04:59:43;16.25;;;7.30;;
39346;SDS011;26262;49.836;6.632;2023-05-14T05:02:08;8.25;;;7.38;;
39346;SDS011;26262;49.836;6.632;2023-05-14T05:04:34;9.65;;;6.65;;
39346;SDS011;26262;49.836;6.632;2023-05-14T05:06:59;17.85;;;7.00;;
39346;SDS011;26262;49.836;6.632;2023-05-14T05:09:25;36.80;;;7.57;;
39346;SDS011;26262;49.836;6.632;2023-05-14T05:11:50;24.52;;;7.75;;
39346;SDS011;26262;49.836;6.632;2023-05-14T05:14:16;20.15;;;8.05;;
39346;SDS011;26262;49.836;6.632;2023-05-14T05:16:41;15.07;;;7.25;;
39346;SDS011;26262;49.836;6.632;2023-05-14T05:19:07;7.80;;;6.03;;
39346;SDS011;26262;49.836;6.632;2023-05-14T05:21:33;8.48;;;5.72;;
39346;SDS011;26262;49.836;6.632;2023-05-14T05:23:59;8.02;;;5.35;;
39346;SDS011;26262;49.836;6.632;2023-05-14T05:26:25;5.95;;;5.30;;
39346;SDS011;26262;49.836;6.632;2023-05-14T05:28:51;21.80;;;6.00;;
39346;SDS011;26262;49.836;6.632;2023-05-14T05:31:16;6.40;;;5.45;;
39346;SDS011;26262;49.836;6.632;2023-05-14T05:33:42;8.65;;;5.72;;
39346;SDS011;26262;49.836;6.632;2023-05-14T05:36:08;28.40;;;5.90;;
39346;SDS011;26262;49.836;6.632;2023-05-14T05:38:33;5.95;;;5.35;;
39346;SDS011;26262;49.836;6.632;2023-05-14T05:40:59;8.32;;;5.55;;
39346;SDS011;26262;49.836;6.632;2023-05-14T05:43:24;30.08;;;5.82;;
39346;SDS011;26262;49.836;6.632;2023-05-14T05:45:50;8.30;;;5.03;;
39346;SDS011;26262;49.836;6.632;2023-05-14T05:48:15;13.27;;;5.43;;
39346;SDS011;26262;49.836;6.632;2023-05-14T05:50:41;5.78;;;4.70;;
39346;SDS011;26262;49.836;6.632;2023-05-14T05:53:08;9.07;;;4.90;;
39346;SDS011;26262;49.836;6.632;2023-05-14T05:55:34;7.10;;;5.32;;
39346;SDS011;26262;49.836;6.632;2023-05-14T05:57:59;7.32;;;5.53;;
39346;SDS011;26262;49.836;6.632;2023-05-14T06:00:25;5.93;;;5.32;;
39346;SDS011;26262;49.836;6.632;2023-05-14T06:02:51;7.32;;;5.43;;
39346;SDS011;26262;49.836;6.632;2023-05-14T06:05:16;5.78;;;5.18;;
39346;SDS011;26262;49.836;6.632;2023-05-14T06:07:43;6.22;;;4.75;;
39346;SDS011;26262;49.836;6.632;2023-05-14T06:10:08;5.55;;;5.05;;
39346;SDS011;26262;49.836;6.632;2023-05-14T06:12:34;5.15;;;4.65;;
39346;SDS011;26262;49.836;6.632;2023-05-14T06:15:00;5.18;;;4.68;;
39346;SDS011;26262;49.836;6.632;2023-05-14T06:17:25;4.97;;;4.35;;
39346;SDS011;26262;49.836;6.632;2023-05-14T06:19:51;4.38;;;3.97;;
39346;SDS011;26262;49.836;6.632;2023-05-14T06:22:17;4.65;;;4.03;;
39346;SDS011;26262;49.836;6.632;2023-05-14T06:24:42;4.10;;;3.70;;
39346;SDS011;26262;49.836;6.632;2023-05-14T06:27:09;3.67;;;3.10;;
39346;SDS011;26262;49.836;6.632;2023-05-14T06:29:35;3.85;;;3.45;;
39346;SDS011;26262;49.836;6.632;2023-05-14T06:32:01;4.05;;;3.45;;
39346;SDS011;26262;49.836;6.632;2023-05-14T06:34:28;3.03;;;2.72;;
39346;SDS011;26262;49.836;6.632;2023-05-14T06:36:53;4.10;;;3.47;;
39346;SDS011;26262;49.836;6.632;2023-05-14T06:39:19;3.63;;;3.33;;
39346;SDS011;26262;49.836;6.632;2023-05-14T06:41:45;2.75;;;2.35;;
39346;SDS011;26262;49.836;6.632;2023-05-14T06:44:10;3.28;;;2.97;;
39346;SDS011;26262;49.836;6.632;2023-05-14T06:46:36;3.47;;;3.17;;
39346;SDS011;26262;49.836;6.632;2023-05-14T06:49:01;3.40;;;3.10;;
39346;SDS011;26262;49.836;6.632;2023-05-14T06:51:27;3.80;;;3.22;;
39346;SDS011;26262;49.836;6.632;2023-05-14T06:53:56;3.15;;;2.85;;
39346;SDS011;26262;49.836;6.632;2023-05-14T06:56:21;4.80;;;3.20;;
39346;SDS011;26262;49.836;6.632;2023-05-14T06:58:47;3.38;;;3.08;;
39346;SDS011;26262;49.836;6.632;2023-05-14T07:01:13;4.65;;;3.22;;
39346;SDS011;26262;49.836;6.632;2023-05-14T07:03:38;3.47;;;3.17;;
39346;SDS011;26262;49.836;6.632;2023-05-14T07:06:04;3.40;;;3.10;;
39346;SDS011;26262;49.836;6.632;2023-05-14T07:08:30;4.38;;;3.50;;
39346;SDS011;26262;49.836;6.632;2023-05-14T07:10:56;4.05;;;3.40;;
39346;SDS011;26262;49.836;6.632;2023-05-14T07:13:22;3.70;;;3.30;;
39346;SDS011;26262;49.836;6.632;2023-05-14T07:15:48;4.18;;;3.78;;
39346;SDS011;26262;49.836;6.632;2023-05-14T07:18:13;5.38;;;3.50;;
39346;SDS011;26262;49.836;6.632;2023-05-14T07:20:39;4.65;;;3.30;;
39346;SDS011;26262;49.836;6.632;2023-05-14T07:23:04;3.92;;;3.30;;
39346;SDS011;26262;49.836;6.632;2023-05-14T07:25:31;4.22;;;3.83;;
39346;SDS011;26262;49.836;6.632;2023-05-14T07:27:56;4.10;;;3.70;;
39346;SDS011;26262;49.836;6.632;2023-05-14T07:30:22;4.18;;;3.78;;
39346;SDS011;26262;49.836;6.632;2023-05-14T07:32:47;4.90;;;4.40;;
39346;SDS011;26262;49.836;6.632;2023-05-14T07:35:13;4.70;;;4.30;;
39346;SDS011;26262;49.836;6.632;2023-05-14T07:37:39;4.43;;;4.03;;
39346;SDS011;26262;49.836;6.632;2023-05-14T07:40:05;5.18;;;4.65;;
39346;SDS011;26262;49.836;6.632;2023-05-14T07:42:31;4.60;;;4.20;;
39346;SDS011;26262;49.836;6.632;2023-05-14T07:44:56;4.35;;;3.80;;
39346;SDS011;26262;49.836;6.632;2023-05-14T07:47:22;3.70;;;2.72;;
39346;SDS011;26262;49.836;6.632;2023-05-14T07:49:47;3.83;;;3.40;;
39346;SDS011;26262;49.836;6.632;2023-05-14T07:52:13;4.55;;;4.15;;
39346;SDS011;26262;49.836;6.632;2023-05-14T07:54:38;4.78;;;4.38;;
39346;SDS011;26262;49.836;6.632;2023-05-14T07:57:04;5.65;;;5.13;;
39346;SDS011;26262;49.836;6.632;2023-05-14T07:59:30;6.50;;;4.22;;
39346;SDS011;26262;49.836;6.632;2023-05-14T08:01:56;4.50;;;3.95;;
39346;SDS011;26262;49.836;6.632;2023-05-14T08:04:21;6.82;;;3.63;;
39346;SDS011;26262;49.836;6.632;2023-05-14T08:06:47;4.70;;;4.10;;
39346;SDS011;26262;49.836;6.632;2023-05-14T08:09:13;4.90;;;4.40;;
39346;SDS011;26262;49.836;6.632;2023-05-14T08:11:39;4.68;;;4.28;;
39346;SDS011;26262;49.836;6.632;2023-05-14T08:14:04;4.75;;;3.88;;
39346;SDS011;26262;49.836;6.632;2023-05-14T08:16:30;3.90;;;3.50;;
39346;SDS011;26262;49.836;6.632;2023-05-14T08:18:56;5.97;;;3.78;;
39346;SDS011;26262;49.836;6.632;2023-05-14T08:21:21;4.43;;;3.75;;
39346;SDS011;26262;49.836;6.632;2023-05-14T08:23:47;4.30;;;3.90;;
39346;SDS011;26262;49.836;6.632;2023-05-14T08:26:12;7.13;;;4.45;;
39346;SDS011;26262;49.836;6.632;2023-05-14T08:28:37;3.60;;;3.30;;
39346;SDS011;26262;49.836;6.632;2023-05-14T08:31:03;6.57;;;4.28;;
39346;SDS011;26262;49.836;6.632;2023-05-14T08:33:29;3.65;;;3.30;;
39346;SDS011;26262;49.836;6.632;2023-05-14T08:35:54;4.65;;;3.63;;
39346;SDS011;26262;49.836;6.632;2023-05-14T08:38:22;3.72;;;3.22;;
39346;SDS011;26262;49.836;6.632;2023-05-14T08:40:57;4.65;;;3.20;;
39346;SDS011;26262;49.836;6.632;2023-05-14T08:43:24;4.03;;;3.33;;
39346;SDS011;26262;49.836;6.632;2023-05-14T08:45:56;3.60;;;3.30;;
39346;SDS011;26262;49.836;6.632;2023-05-14T08:48:25;3.40;;;3.10;;
39346;SDS011;26262;49.836;6.632;2023-05-14T08:50:54;3.58;;;3.28;;
39346;SDS011;26262;49.836;6.632;2023-05-14T08:53:20;7.05;;;3.35;;
39346;SDS011;26262;49.836;6.632;2023-05-14T08:55:46;4.97;;;3.42;;
39346;SDS011;26262;49.836;6.632;2023-05-14T09:00:39;5.22;;;2.88;;
39346;SDS011;26262;49.836;6.632;2023-05-14T09:03:05;3.70;;;3.40;;
39346;SDS011;26262;49.836;6.632;2023-05-14T09:05:31;5.07;;;3.55;;
39346;SDS011;26262;49.836;6.632;2023-05-14T09:07:57;4.50;;;3.53;;
39346;SDS011;26262;49.836;6.632;2023-05-14T09:10:23;7.65;;;4.68;;
39346;SDS011;26262;49.836;6.632;2023-05-14T09:12:49;4.75;;;3.30;;
39346;SDS011;26262;49.836;6.632;2023-05-14T09:15:15;4.88;;;3.65;;
39346;SDS011;26262;49.836;6.632;2023-05-14T09:17:41;3.30;;;2.95;;
39346;SDS011;26262;49.836;6.632;2023-05-14T09:20:08;3.88;;;3.10;;
39346;SDS011;26262;49.836;6.632;2023-05-14T09:22:36;6.13;;;3.40;;
39346;SDS011;26262;49.836;6.632;2023-05-14T09:25:07;5.57;;;3.38;;
39346;SDS011;26262;49.836;6.632;2023-05-14T09:27:35;3.75;;;3.40;;
39346;SDS011;26262;49.836;6.632;2023-05-14T09:30:05;3.90;;;3.08;;
39346;SDS011;26262;49.836;6.632;2023-05-14T09:32:37;4.10;;;2.85;;
39346;SDS011;26262;49.836;6.632;2023-05-14T09:35:11;6.47;;;3.45;;
39346;SDS011;26262;49.836;6.632;2023-05-14T09:37:50;5.40;;;3.10;;
39346;SDS011;26262;49.836;6.632;2023-05-14T09:40:18;5.15;;;3.20;;
39346;SDS011;26262;49.836;6.632;2023-05-14T09:42:45;3.90;;;2.88;;
39346;SDS011;26262;49.836;6.632;2023-05-14T09:45:12;4.40;;;2.88;;
39346;SDS011;26262;49.836;6.632;2023-05-14T09:47:38;4.05;;;2.60;;
39346;SDS011;26262;49.836;6.632;2023-05-14T09:50:04;5.40;;;2.75;;
39346;SDS011;26262;49.836;6.632;2023-05-14T09:52:31;3.65;;;2.78;;
39346;SDS011;26262;49.836;6.632;2023-05-14T09:54:56;3.92;;;2.97;;
39346;SDS011;26262;49.836;6.632;2023-05-14T09:57:22;2.78;;;2.58;;
39346;SDS011;26262;49.836;6.632;2023-05-14T09:59:48;3.00;;;2.60;;
39346;SDS011;26262;49.836;6.632;2023-05-14T10:02:29;2.58;;;2.35;;
39346;SDS011;26262;49.836;6.632;2023-05-14T10:05:01;3.88;;;1.98;;
39346;SDS011;26262;49.836;6.632;2023-05-14T10:07:32;3.75;;;2.30;;
39346;SDS011;26262;49.836;6.632;2023-05-14T10:10:12;2.53;;;2.15;;
39346;SDS011;26262;49.836;6.632;2023-05-14T10:12:40;3.60;;;2.22;;
39346;SDS011;26262;49.836;6.632;2023-05-14T10:15:18;1.90;;;1.70;;
39346;SDS011;26262;49.836;6.632;2023-05-14T10:17:48;2.83;;;2.10;;
39346;SDS011;26262;49.836;6.632;2023-05-14T10:20:17;2.28;;;2.03;;
39346;SDS011;26262;49.836;6.632;2023-05-14T10:22:44;3.03;;;1.98;;
39346;SDS011;26262;49.836;6.632;2023-05-14T10:25:10;3.05;;;1.83;;
39346;SDS011;26262;49.836;6.632;2023-05-14T10:27:36;2.10;;;1.90;;
39346;SDS011;26262;49.836;6.632;2023-05-14T10:30:04;2.50;;;1.77;;
39346;SDS011;26262;49.836;6.632;2023-05-14T10:32:34;2.70;;;1.85;;
39346;SDS011;26262;49.836;6.632;2023-05-14T10:37:38;3.42;;;2.20;;
39346;SDS011;26262;49.836;6.632;2023-05-14T10:40:04;2.50;;;2.00;;
39346;SDS011;26262;49.836;6.632;2023-05-14T10:42:31;2.35;;;1.98;;
39346;SDS011;26262;49.836;6.632;2023-05-14T10:45:05;2.63;;;1.90;;
39346;SDS011;26262;49.836;6.632;2023-05-14T10:47:36;2.50;;;2.20;;
39346;SDS011;26262;49.836;6.632;2023-05-14T10:50:04;2.22;;;1.83;;
39346;SDS011;26262;49.836;6.632;2023-05-14T10:52:32;4.45;;;2.15;;
39346;SDS011;26262;49.836;6.632;2023-05-14T10:54:59;3.58;;;1.95;;
39346;SDS011;26262;49.836;6.632;2023-05-14T10:57:26;2.45;;;2.08;;
39346;SDS011;26262;49.836;6.632;2023-05-14T10:59:54;4.35;;;2.08;;
39346;SDS011;26262;49.836;6.632;2023-05-14T11:02:33;2.75;;;2.10;;
39346;SDS011;26262;49.836;6.632;2023-05-14T11:05:05;2.90;;;2.28;;
39346;SDS011;26262;49.836;6.632;2023-05-14T11:12:32;5.22;;;2.30;;
39346;SDS011;26262;49.836;6.632;2023-05-14T11:14:59;3.42;;;2.20;;
39346;SDS011;26262;49.836;6.632;2023-05-14T11:17:27;2.95;;;2.38;;
39346;SDS011;26262;49.836;6.632;2023-05-14T11:19:54;3.63;;;2.28;;
39346;SDS011;26262;49.836;6.632;2023-05-14T11:22:20;5.30;;;2.28;;
39346;SDS011;26262;49.836;6.632;2023-05-14T11:24:46;2.58;;;2.30;;
39346;SDS011;26262;49.836;6.632;2023-05-14T11:27:12;4.80;;;2.55;;
39346;SDS011;26262;49.836;6.632;2023-05-14T11:29:37;3.17;;;2.10;;
39346;SDS011;26262;49.836;6.632;2023-05-14T11:32:06;3.90;;;2.30;;
39346;SDS011;26262;49.836;6.632;2023-05-14T11:34:32;2.75;;;2.20;;
39346;SDS011;26262;49.836;6.632;2023-05-14T11:37:04;3.60;;;2.30;;
39346;SDS011;26262;49.836;6.632;2023-05-14T11:39:31;2.25;;;2.00;;
39346;SDS011;26262;49.836;6.632;2023-05-14T11:41:57;3.90;;;2.22;;
39346;SDS011;26262;49.836;6.632;2023-05-14T11:44:26;2.78;;;2.28;;
39346;SDS011;26262;49.836;6.632;2023-05-14T11:46:57;3.30;;;2.17;;
39346;SDS011;26262;49.836;6.632;2023-05-14T11:49:25;2.88;;;2.33;;
39346;SDS011;26262;49.836;6.632;2023-05-14T11:51:56;3.42;;;2.13;;
39346;SDS011;26262;49.836;6.632;2023-05-14T11:54:26;3.13;;;2.28;;
39346;SDS011;26262;49.836;6.632;2023-05-14T11:56:53;2.90;;;2.10;;
39346;SDS011;26262;49.836;6.632;2023-05-14T11:59:19;3.03;;;2.42;;
39346;SDS011;26262;49.836;6.632;2023-05-14T12:01:45;2.53;;;1.80;;
39346;SDS011;26262;49.836;6.632;2023-05-14T12:04:11;2.30;;;2.00;;
39346;SDS011;26262;49.836;6.632;2023-05-14T12:06:38;4.00;;;2.13;;
39346;SDS011;26262;49.836;6.632;2023-05-14T12:09:04;6.18;;;2.15;;
39346;SDS011;26262;49.836;6.632;2023-05-14T12:11:30;4.57;;;2.38;;
39346;SDS011;26262;49.836;6.632;2023-05-14T12:13:59;4.28;;;2.30;;
39346;SDS011;26262;49.836;6.632;2023-05-14T12:16:29;3.55;;;2.58;;
39346;SDS011;26262;49.836;6.632;2023-05-14T12:19:00;2.42;;;2.22;;
39346;SDS011;26262;49.836;6.632;2023-05-14T12:21:26;3.28;;;2.10;;
39346;SDS011;26262;49.836;6.632;2023-05-14T12:23:56;2.65;;;2.45;;
39346;SDS011;26262;49.836;6.632;2023-05-14T12:26:24;3.97;;;2.30;;
39346;SDS011;26262;49.836;6.632;2023-05-14T12:28:55;4.15;;;2.90;;
39346;SDS011;26262;49.836;6.632;2023-05-14T12:31:30;2.90;;;2.30;;
39346;SDS011;26262;49.836;6.632;2023-05-14T12:33:56;2.42;;;2.20;;
39346;SDS011;26262;49.836;6.632;2023-05-14T12:36:22;4.55;;;2.60;;
39346;SDS011;26262;49.836;6.632;2023-05-14T12:38:48;3.20;;;2.60;;
39346;SDS011;26262;49.836;6.632;2023-05-14T12:41:14;4.03;;;2.78;;
39346;SDS011;26262;49.836;6.632;2023-05-14T12:43:41;3.75;;;2.55;;
39346;SDS011;26262;49.836;6.632;2023-05-14T12:46:08;3.35;;;2.30;;
39346;SDS011;26262;49.836;6.632;2023-05-14T12:48:34;5.50;;;2.38;;
39346;SDS011;26262;49.836;6.632;2023-05-14T12:51:00;2.75;;;2.17;;
39346;SDS011;26262;49.836;6.632;2023-05-14T12:53:25;2.97;;;2.45;;
39346;SDS011;26262;49.836;6.632;2023-05-14T12:55:51;5.18;;;2.33;;
39346;SDS011;26262;49.836;6.632;2023-05-14T12:58:16;2.08;;;1.88;;
39346;SDS011;26262;49.836;6.632;2023-05-14T13:00:42;3.45;;;2.50;;
39346;SDS011;26262;49.836;6.632;2023-05-14T13:03:07;3.13;;;2.35;;
39346;SDS011;26262;49.836;6.632;2023-05-14T13:05:33;3.08;;;2.25;;
39346;SDS011;26262;49.836;6.632;2023-05-14T13:07:59;3.97;;;2.40;;
39346;SDS011;26262;49.836;6.632;2023-05-14T13:10:27;5.40;;;2.30;;
39346;SDS011;26262;49.836;6.632;2023-05-14T13:12:53;6.55;;;2.08;;
39346;SDS011;26262;49.836;6.632;2023-05-14T13:15:20;2.33;;;1.77;;
39346;SDS011;26262;49.836;6.632;2023-05-14T13:17:46;4.53;;;1.80;;
39346;SDS011;26262;49.836;6.632;2023-05-14T13:20:12;4.40;;;1.98;;
39346;SDS011;26262;49.836;6.632;2023-05-14T13:22:38;2.38;;;1.90;;
39346;SDS011;26262;49.836;6.632;2023-05-14T13:25:03;3.28;;;2.08;;
39346;SDS011;26262;49.836;6.632;2023-05-14T13:27:29;2.60;;;1.75;;
39346;SDS011;26262;49.836;6.632;2023-05-14T13:29:55;2.95;;;1.63;;
39346;SDS011;26262;49.836;6.632;2023-05-14T13:32:21;2.38;;;1.88;;
39346;SDS011;26262;49.836;6.632;2023-05-14T13:34:47;3.47;;;1.80;;
39346;SDS011;26262;49.836;6.632;2023-05-14T13:37:12;2.63;;;2.00;;
39346;SDS011;26262;49.836;6.632;2023-05-14T13:39:38;5.78;;;2.35;;
39346;SDS011;26262;49.836;6.632;2023-05-14T13:42:03;2.00;;;1.50;;
39346;SDS011;26262;49.836;6.632;2023-05-14T13:44:30;2.38;;;1.50;;
39346;SDS011;26262;49.836;6.632;2023-05-14T13:46:55;2.00;;;1.40;;
39346;SDS011;26262;49.836;6.632;2023-05-14T13:49:21;1.77;;;1.40;;
39346;SDS011;26262;49.836;6.632;2023-05-14T13:51:46;2.35;;;1.73;;
39346;SDS011;26262;49.836;6.632;2023-05-14T13:54:12;4.32;;;2.05;;
39346;SDS011;26262;49.836;6.632;2023-05-14T13:56:37;2.13;;;1.67;;
39346;SDS011;26262;49.836;6.632;2023-05-14T13:59:03;2.00;;;1.45;;
39346;SDS011;26262;49.836;6.632;2023-05-14T14:01:28;2.08;;;1.52;;
39346;SDS011;26262;49.836;6.632;2023-05-14T14:03:57;1.85;;;1.52;;
39346;SDS011;26262;49.836;6.632;2023-05-14T14:06:24;3.38;;;1.83;;
39346;SDS011;26262;49.836;6.632;2023-05-14T14:08:51;2.42;;;1.80;;
39346;SDS011;26262;49.836;6.632;2023-05-14T14:11:16;1.90;;;1.70;;
39346;SDS011;26262;49.836;6.632;2023-05-14T14:13:42;1.95;;;1.80;;
39346;SDS011;26262;49.836;6.632;2023-05-14T14:16:08;2.92;;;1.60;;
39346;SDS011;26262;49.836;6.632;2023-05-14T14:18:34;2.08;;;1.65;;
39346;SDS011;26262;49.836;6.632;2023-05-14T14:21:00;2.03;;;1.80;;
39346;SDS011;26262;49.836;6.632;2023-05-14T14:23:25;2.80;;;1.80;;
39346;SDS011;26262;49.836;6.632;2023-05-14T14:25:51;3.35;;;1.55;;
39346;SDS011;26262;49.836;6.632;2023-05-14T14:28:16;3.80;;;2.03;;
39346;SDS011;26262;49.836;6.632;2023-05-14T14:30:42;2.58;;;1.75;;
39346;SDS011;26262;49.836;6.632;2023-05-14T14:33:08;3.63;;;2.10;;
39346;SDS011;26262;49.836;6.632;2023-05-14T14:35:34;2.03;;;1.83;;
39346;SDS011;26262;49.836;6.632;2023-05-14T14:38:01;2.92;;;1.90;;
39346;SDS011;26262;49.836;6.632;2023-05-14T14:40:26;1.98;;;1.63;;
39346;SDS011;26262;49.836;6.632;2023-05-14T14:42:53;1.98;;;1.77;;
39346;SDS011;26262;49.836;6.632;2023-05-14T14:45:19;2.80;;;1.90;;
39346;SDS011;26262;49.836;6.632;2023-05-14T14:47:45;4.00;;;2.08;;
39346;SDS011;26262;49.836;6.632;2023-05-14T14:50:11;2.20;;;1.73;;
39346;SDS011;26262;49.836;6.632;2023-05-14T14:52:38;3.53;;;2.40;;
39346;SDS011;26262;49.836;6.632;2023-05-14T14:55:04;4.20;;;1.70;;
39346;SDS011;26262;49.836;6.632;2023-05-14T14:57:30;3.15;;;2.00;;
39346;SDS011;26262;49.836;6.632;2023-05-14T14:59:56;2.90;;;2.10;;